sensor_id;sensor_type;location;lat;lon;timestamp;temperature;humidity
20376;DHT22;10347;51.828;6.466;2024-01-30T00:02:15;10.60;99.90
20376;DHT22;10347;51.828;6.466;2024-01-30T00:04:40;10.50;99.90
20376;DHT22;10347;51.828;6.466;2024-01-30T00:07:06;10.50;99.90
20376;DHT22;10347;51.828;6.466;2024-01-30T00:09:32;10.60;99.90
20376;DHT22;10347;51.828;6.466;2024-01-30T00:11:57;10.60;99.90
20376;DHT22;10347;51.828;6.466;2024-01-30T00:14:25;10.50;99.90
20376;DHT22;10347;51.828;6.466;2024-01-30T00:16:51;10.60;99.90
20376;DHT22;10347;51.828;6.466;2024-01-30T00:19:17;10.60;99.90
20376;DHT22;10347;51.828;6.466;2024-01-30T00:21:43;10.50;99.90
20376;DHT22;10347;51.828;6.466;2024-01-30T00:24:08;10.50;99.90
20376;DHT22;10347;51.828;6.466;2024-01-30T00:26:34;10.50;99.90
20376;DHT22;10347;51.828;6.466;2024-01-30T00:28:59;10.50;99.90
20376;DHT22;10347;51.828;6.466;2024-01-30T00:31:25;10.50;99.90
20376;DHT22;10347;51.828;6.466;2024-01-30T00:33:51;10.50;99.90
20376;DHT22;10347;51.828;6.466;2024-01-30T00:36:16;10.50;99.90
20376;DHT22;10347;51.828;6.466;2024-01-30T00:38:42;10.50;99.90
20376;DHT22;10347;51.828;6.466;2024-01-30T00:41:10;10.50;99.90
20376;DHT22;10347;51.828;6.466;2024-01-30T00:43:36;10.50;99.90
20376;DHT22;10347;51.828;6.466;2024-01-30T00:46:02;10.50;99.90
20376;DHT22;10347;51.828;6.466;2024-01-30T00:48:28;10.50;99.90
20376;DHT22;10347;51.828;6.466;2024-01-30T00:50:54;10.50;99.90
20376;DHT22;10347;51.828;6.466;2024-01-30T00:53:19;10.50;99.90
20376;DHT22;10347;51.828;6.466;2024-01-30T00:55:45;10.50;99.90
20376;DHT22;10347;51.828;6.466;2024-01-30T00:58:11;10.50;99.90
20376;DHT22;10347;51.828;6.466;2024-01-30T01:00:36;10.50;99.90
20376;DHT22;10347;51.828;6.466;2024-01-30T01:03:02;10.40;99.90
20376;DHT22;10347;51.828;6.466;2024-01-30T01:05:28;10.40;99.90
20376;DHT22;10347;51.828;6.466;2024-01-30T01:07:54;10.40;99.90
20376;DHT22;10347;51.828;6.466;2024-01-30T01:10:19;10.40;99.90
20376;DHT22;10347;51.828;6.466;2024-01-30T01:12:46;10.40;99.90
20376;DHT22;10347;51.828;6.466;2024-01-30T01:15:11;10.40;99.90
20376;DHT22;10347;51.828;6.466;2024-01-30T01:17:40;10.40;99.90
20376;DHT22;10347;51.828;6.466;2024-01-30T01:20:07;10.40;99.90
20376;DHT22;10347;51.828;6.466;2024-01-30T01:22:33;10.40;99.90
20376;DHT22;10347;51.828;6.466;2024-01-30T01:25:02;10.40;99.90
20376;DHT22;10347;51.828;6.466;2024-01-30T01:27:28;10.40;99.90
20376;DHT22;10347;51.828;6.466;2024-01-30T01:29:53;10.40;99.90
20376;DHT22;10347;51.828;6.466;2024-01-30T01:32:19;10.30;99.90
20376;DHT22;10347;51.828;6.466;2024-01-30T01:34:45;10.30;99.90
20376;DHT22;10347;51.828;6.466;2024-01-30T01:37:11;10.30;99.90
20376;DHT22;10347;51.828;6.466;2024-01-30T01:39:36;10.30;99.90
20376;DHT22;10347;51.828;6.466;2024-01-30T01:42:02;10.30;99.90
20376;DHT22;10347;51.828;6.466;2024-01-30T01:44:28;10.30;99.90
20376;DHT22;10347;51.828;6.466;2024-01-30T01:46:54;10.30;99.90
20376;DHT22;10347;51.828;6.466;2024-01-30T01:49:22;10.30;99.90
20376;DHT22;10347;51.828;6.466;2024-01-30T01:51:49;10.30;99.90
20376;DHT22;10347;51.828;6.466;2024-01-30T01:54:16;10.30;99.90
20376;DHT22;10347;51.828;6.466;2024-01-30T01:56:42;10.30;99.90
20376;DHT22;10347;51.828;6.466;2024-01-30T01:59:09;10.30;99.90
20376;DHT22;10347;51.828;6.466;2024-01-30T02:01:36;10.30;99.90
20376;DHT22;10347;51.828;6.466;2024-01-30T02:04:02;10.20;99.90
20376;DHT22;10347;51.828;6.466;2024-01-30T02:06:28;10.20;99.90
20376;DHT22;10347;51.828;6.466;2024-01-30T02:08:54;10.20;99.90
20376;DHT22;10347;51.828;6.466;2024-01-30T02:11:20;10.20;99.90
20376;DHT22;10347;51.828;6.466;2024-01-30T02:13:47;10.20;99.90
20376;DHT22;10347;51.828;6.466;2024-01-30T02:16:13;10.20;99.90
20376;DHT22;10347;51.828;6.466;2024-01-30T02:18:38;10.20;99.90
20376;DHT22;10347;51.828;6.466;2024-01-30T02:21:08;10.20;99.90
20376;DHT22;10347;51.828;6.466;2024-01-30T02:23:34;10.30;99.90
20376;DHT22;10347;51.828;6.466;2024-01-30T02:26:00;10.30;99.90
20376;DHT22;10347;51.828;6.466;2024-01-30T02:28:26;10.20;99.90
20376;DHT22;10347;51.828;6.466;2024-01-30T02:30:53;10.30;99.90
20376;DHT22;10347;51.828;6.466;2024-01-30T02:33:18;10.30;99.90
20376;DHT22;10347;51.828;6.466;2024-01-30T02:35:44;10.30;99.90
20376;DHT22;10347;51.828;6.466;2024-01-30T02:38:10;10.30;99.90
20376;DHT22;10347;51.828;6.466;2024-01-30T02:40:35;10.30;99.90
20376;DHT22;10347;51.828;6.466;2024-01-30T02:43:02;10.30;99.90
20376;DHT22;10347;51.828;6.466;2024-01-30T02:45:27;10.30;99.90
20376;DHT22;10347;51.828;6.466;2024-01-30T02:47:53;10.30;99.90
20376;DHT22;10347;51.828;6.466;2024-01-30T02:50:19;10.30;99.90
20376;DHT22;10347;51.828;6.466;2024-01-30T02:52:44;10.30;99.90
20376;DHT22;10347;51.828;6.466;2024-01-30T02:55:10;10.30;99.90
20376;DHT22;10347;51.828;6.466;2024-01-30T02:57:36;10.30;99.90
20376;DHT22;10347;51.828;6.466;2024-01-30T03:00:02;10.30;99.90
20376;DHT22;10347;51.828;6.466;2024-01-30T03:02:29;10.30;99.90
20376;DHT22;10347;51.828;6.466;2024-01-30T03:04:55;10.30;99.90
20376;DHT22;10347;51.828;6.466;2024-01-30T03:07:20;10.30;99.90
20376;DHT22;10347;51.828;6.466;2024-01-30T03:09:46;10.30;99.90
20376;DHT22;10347;51.828;6.466;2024-01-30T03:12:11;10.30;99.90
20376;DHT22;10347;51.828;6.466;2024-01-30T03:14:37;10.30;99.90
20376;DHT22;10347;51.828;6.466;2024-01-30T03:17:03;10.20;99.90
20376;DHT22;10347;51.828;6.466;2024-01-30T03:19:28;10.20;99.90
20376;DHT22;10347;51.828;6.466;2024-01-30T03:21:54;10.20;99.90
20376;DHT22;10347;51.828;6.466;2024-01-30T03:24:19;10.20;99.90
20376;DHT22;10347;51.828;6.466;2024-01-30T03:26:45;10.20;99.90
20376;DHT22;10347;51.828;6.466;2024-01-30T03:29:11;10.20;99.90
20376;DHT22;10347;51.828;6.466;2024-01-30T03:31:37;10.20;99.90
20376;DHT22;10347;51.828;6.466;2024-01-30T03:34:02;10.20;99.90
20376;DHT22;10347;51.828;6.466;2024-01-30T03:36:28;10.20;99.90
20376;DHT22;10347;51.828;6.466;2024-01-30T03:38:53;10.20;99.90
20376;DHT22;10347;51.828;6.466;2024-01-30T03:41:19;10.20;99.90
20376;DHT22;10347;51.828;6.466;2024-01-30T03:43:45;10.20;99.90
20376;DHT22;10347;51.828;6.466;2024-01-30T03:46:12;10.20;99.90
20376;DHT22;10347;51.828;6.466;2024-01-30T03:48:38;10.20;99.90
20376;DHT22;10347;51.828;6.466;2024-01-30T03:51:04;10.20;99.90
20376;DHT22;10347;51.828;6.466;2024-01-30T03:53:30;10.20;99.90
20376;DHT22;10347;51.828;6.466;2024-01-30T03:55:55;10.20;99.90
20376;DHT22;10347;51.828;6.466;2024-01-30T03:58:21;10.20;99.90
20376;DHT22;10347;51.828;6.466;2024-01-30T04:00:47;10.20;99.90
20376;DHT22;10347;51.828;6.466;2024-01-30T04:03:12;10.20;99.90
20376;DHT22;10347;51.828;6.466;2024-01-30T04:05:38;10.20;99.90
20376;DHT22;10347;51.828;6.466;2024-01-30T04:08:03;10.20;99.90
20376;DHT22;10347;51.828;6.466;2024-01-30T04:10:29;10.20;99.90
20376;DHT22;10347;51.828;6.466;2024-01-30T04:12:55;10.20;99.90
20376;DHT22;10347;51.828;6.466;2024-01-30T04:15:21;10.20;99.90
20376;DHT22;10347;51.828;6.466;2024-01-30T04:17:46;10.20;99.90
20376;DHT22;10347;51.828;6.466;2024-01-30T04:20:15;10.10;99.90
20376;DHT22;10347;51.828;6.466;2024-01-30T04:22:43;10.20;99.90
20376;DHT22;10347;51.828;6.466;2024-01-30T04:25:09;10.20;99.90
20376;DHT22;10347;51.828;6.466;2024-01-30T04:27:35;10.20;99.90
20376;DHT22;10347;51.828;6.466;2024-01-30T04:30:00;10.20;99.90
20376;DHT22;10347;51.828;6.466;2024-01-30T04:32:26;10.20;99.90
20376;DHT22;10347;51.828;6.466;2024-01-30T04:34:51;10.20;99.90
20376;DHT22;10347;51.828;6.466;2024-01-30T04:37:17;10.20;99.90
20376;DHT22;10347;51.828;6.466;2024-01-30T04:39:42;10.20;99.90
20376;DHT22;10347;51.828;6.466;2024-01-30T04:42:08;10.10;99.90
20376;DHT22;10347;51.828;6.466;2024-01-30T04:44:33;10.10;99.90
20376;DHT22;10347;51.828;6.466;2024-01-30T04:46:59;10.10;99.90
20376;DHT22;10347;51.828;6.466;2024-01-30T04:49:27;10.10;99.90
20376;DHT22;10347;51.828;6.466;2024-01-30T04:51:52;10.10;99.90
20376;DHT22;10347;51.828;6.466;2024-01-30T04:54:18;10.10;99.90
20376;DHT22;10347;51.828;6.466;2024-01-30T04:56:44;10.10;99.90
20376;DHT22;10347;51.828;6.466;2024-01-30T04:59:09;10.10;99.90
20376;DHT22;10347;51.828;6.466;2024-01-30T05:01:35;10.10;99.90
20376;DHT22;10347;51.828;6.466;2024-01-30T05:04:00;10.10;99.90
20376;DHT22;10347;51.828;6.466;2024-01-30T05:06:29;10.10;99.90
20376;DHT22;10347;51.828;6.466;2024-01-30T05:08:55;10.10;99.90
20376;DHT22;10347;51.828;6.466;2024-01-30T05:11:21;10.10;99.90
20376;DHT22;10347;51.828;6.466;2024-01-30T05:13:46;10.10;99.90
20376;DHT22;10347;51.828;6.466;2024-01-30T05:16:12;10.10;99.90
20376;DHT22;10347;51.828;6.466;2024-01-30T05:18:37;10.10;99.90
20376;DHT22;10347;51.828;6.466;2024-01-30T05:21:03;10.10;99.90
20376;DHT22;10347;51.828;6.466;2024-01-30T05:23:29;10.10;99.90
20376;DHT22;10347;51.828;6.466;2024-01-30T05:25:54;10.10;99.90
20376;DHT22;10347;51.828;6.466;2024-01-30T05:28:20;10.10;99.90
20376;DHT22;10347;51.828;6.466;2024-01-30T05:30:45;10.10;99.90
20376;DHT22;10347;51.828;6.466;2024-01-30T05:33:11;10.10;99.90
20376;DHT22;10347;51.828;6.466;2024-01-30T05:35:37;10.10;99.90
20376;DHT22;10347;51.828;6.466;2024-01-30T05:38:03;10.10;99.90
20376;DHT22;10347;51.828;6.466;2024-01-30T05:40:29;10.10;99.90
20376;DHT22;10347;51.828;6.466;2024-01-30T05:42:55;10.10;99.90
20376;DHT22;10347;51.828;6.466;2024-01-30T05:45:21;10.10;99.90
20376;DHT22;10347;51.828;6.466;2024-01-30T05:47:48;10.10;99.90
20376;DHT22;10347;51.828;6.466;2024-01-30T05:50:14;10.10;99.90
20376;DHT22;10347;51.828;6.466;2024-01-30T05:52:40;10.10;99.90
20376;DHT22;10347;51.828;6.466;2024-01-30T05:55:06;10.10;99.90
20376;DHT22;10347;51.828;6.466;2024-01-30T05:57:31;10.10;99.90
20376;DHT22;10347;51.828;6.466;2024-01-30T05:59:57;10.10;99.90
20376;DHT22;10347;51.828;6.466;2024-01-30T06:02:23;10.10;99.90
20376;DHT22;10347;51.828;6.466;2024-01-30T06:04:48;10.10;99.90
20376;DHT22;10347;51.828;6.466;2024-01-30T06:07:14;10.10;99.90
20376;DHT22;10347;51.828;6.466;2024-01-30T06:09:39;10.10;99.90
20376;DHT22;10347;51.828;6.466;2024-01-30T06:12:06;10.10;99.90
20376;DHT22;10347;51.828;6.466;2024-01-30T06:14:32;10.00;99.90
20376;DHT22;10347;51.828;6.466;2024-01-30T06:16:59;10.00;99.90
20376;DHT22;10347;51.828;6.466;2024-01-30T06:19:25;10.00;99.90
20376;DHT22;10347;51.828;6.466;2024-01-30T06:21:50;10.00;99.90
20376;DHT22;10347;51.828;6.466;2024-01-30T06:24:16;10.00;99.90
20376;DHT22;10347;51.828;6.466;2024-01-30T06:26:42;10.00;99.90
20376;DHT22;10347;51.828;6.466;2024-01-30T06:29:08;10.00;99.90
20376;DHT22;10347;51.828;6.466;2024-01-30T06:31:39;10.00;99.90
20376;DHT22;10347;51.828;6.466;2024-01-30T06:34:05;10.00;99.90
20376;DHT22;10347;51.828;6.466;2024-01-30T06:36:31;10.00;99.90
20376;DHT22;10347;51.828;6.466;2024-01-30T06:38:56;10.00;99.90
20376;DHT22;10347;51.828;6.466;2024-01-30T06:41:22;10.00;99.90
20376;DHT22;10347;51.828;6.466;2024-01-30T06:43:47;10.00;99.90
20376;DHT22;10347;51.828;6.466;2024-01-30T06:46:13;10.00;99.90
20376;DHT22;10347;51.828;6.466;2024-01-30T06:48:39;10.00;99.90
20376;DHT22;10347;51.828;6.466;2024-01-30T06:51:05;10.00;99.90
20376;DHT22;10347;51.828;6.466;2024-01-30T06:53:31;10.10;99.90
20376;DHT22;10347;51.828;6.466;2024-01-30T06:55:57;10.10;99.90
20376;DHT22;10347;51.828;6.466;2024-01-30T06:58:22;10.10;99.90
20376;DHT22;10347;51.828;6.466;2024-01-30T07:00:48;10.10;99.90
20376;DHT22;10347;51.828;6.466;2024-01-30T07:03:13;10.10;99.90
20376;DHT22;10347;51.828;6.466;2024-01-30T07:05:39;10.10;99.90
20376;DHT22;10347;51.828;6.466;2024-01-30T07:08:05;10.00;99.90
20376;DHT22;10347;51.828;6.466;2024-01-30T07:10:30;10.10;99.90
20376;DHT22;10347;51.828;6.466;2024-01-30T07:12:57;10.10;99.90
20376;DHT22;10347;51.828;6.466;2024-01-30T07:15:22;10.10;99.90
20376;DHT22;10347;51.828;6.466;2024-01-30T07:17:48;10.10;99.90
20376;DHT22;10347;51.828;6.466;2024-01-30T07:20:13;10.10;99.90
20376;DHT22;10347;51.828;6.466;2024-01-30T07:22:40;10.10;99.90
20376;DHT22;10347;51.828;6.466;2024-01-30T07:25:06;10.10;99.90
20376;DHT22;10347;51.828;6.466;2024-01-30T07:27:31;10.10;99.90
20376;DHT22;10347;51.828;6.466;2024-01-30T07:29:57;10.10;99.90
20376;DHT22;10347;51.828;6.466;2024-01-30T07:32:22;10.10;99.90
20376;DHT22;10347;51.828;6.466;2024-01-30T07:34:49;10.10;99.90
20376;DHT22;10347;51.828;6.466;2024-01-30T07:37:14;10.00;99.90
20376;DHT22;10347;51.828;6.466;2024-01-30T07:39:41;10.10;99.90
20376;DHT22;10347;51.828;6.466;2024-01-30T07:42:07;10.10;99.90
20376;DHT22;10347;51.828;6.466;2024-01-30T07:44:33;10.10;99.90
20376;DHT22;10347;51.828;6.466;2024-01-30T07:46:59;10.10;99.90
20376;DHT22;10347;51.828;6.466;2024-01-30T07:49:25;10.10;99.90
20376;DHT22;10347;51.828;6.466;2024-01-30T07:51:50;10.10;99.90
20376;DHT22;10347;51.828;6.466;2024-01-30T07:54:16;10.10;99.90
20376;DHT22;10347;51.828;6.466;2024-01-30T07:56:41;10.10;99.90
20376;DHT22;10347;51.828;6.466;2024-01-30T07:59:11;10.10;99.90
20376;DHT22;10347;51.828;6.466;2024-01-30T08:01:37;10.10;99.90
20376;DHT22;10347;51.828;6.466;2024-01-30T08:04:03;10.10;99.90
20376;DHT22;10347;51.828;6.466;2024-01-30T08:06:28;10.10;99.90
20376;DHT22;10347;51.828;6.466;2024-01-30T08:08:54;10.10;99.90
20376;DHT22;10347;51.828;6.466;2024-01-30T08:11:22;10.10;99.90
20376;DHT22;10347;51.828;6.466;2024-01-30T08:13:52;10.10;99.90
20376;DHT22;10347;51.828;6.466;2024-01-30T08:16:17;10.10;99.90
20376;DHT22;10347;51.828;6.466;2024-01-30T08:18:43;10.20;99.90
20376;DHT22;10347;51.828;6.466;2024-01-30T08:21:09;10.20;99.90
20376;DHT22;10347;51.828;6.466;2024-01-30T08:23:34;10.20;99.90
20376;DHT22;10347;51.828;6.466;2024-01-30T08:26:00;10.10;99.90
20376;DHT22;10347;51.828;6.466;2024-01-30T08:28:25;10.00;99.90
20376;DHT22;10347;51.828;6.466;2024-01-30T08:30:51;10.20;99.90
20376;DHT22;10347;51.828;6.466;2024-01-30T08:33:17;10.20;99.90
20376;DHT22;10347;51.828;6.466;2024-01-30T08:35:43;10.20;99.90
20376;DHT22;10347;51.828;6.466;2024-01-30T08:38:08;10.20;99.90
20376;DHT22;10347;51.828;6.466;2024-01-30T08:40:34;10.20;99.90
20376;DHT22;10347;51.828;6.466;2024-01-30T08:43:00;10.20;99.90
20376;DHT22;10347;51.828;6.466;2024-01-30T08:45:25;10.20;99.90
20376;DHT22;10347;51.828;6.466;2024-01-30T08:47:51;10.20;99.90
20376;DHT22;10347;51.828;6.466;2024-01-30T08:50:16;10.30;99.90
20376;DHT22;10347;51.828;6.466;2024-01-30T08:52:42;10.30;99.90
20376;DHT22;10347;51.828;6.466;2024-01-30T08:55:07;10.30;99.90
20376;DHT22;10347;51.828;6.466;2024-01-30T08:57:33;10.30;99.90
20376;DHT22;10347;51.828;6.466;2024-01-30T08:59:59;10.30;99.90
20376;DHT22;10347;51.828;6.466;2024-01-30T09:02:24;10.40;99.90
20376;DHT22;10347;51.828;6.466;2024-01-30T09:04:50;10.40;99.90
20376;DHT22;10347;51.828;6.466;2024-01-30T09:07:15;10.40;99.90
20376;DHT22;10347;51.828;6.466;2024-01-30T09:09:41;10.40;99.90
20376;DHT22;10347;51.828;6.466;2024-01-30T09:12:07;10.40;99.90
20376;DHT22;10347;51.828;6.466;2024-01-30T09:14:37;10.50;99.90
20376;DHT22;10347;51.828;6.466;2024-01-30T09:17:03;10.50;99.90
20376;DHT22;10347;51.828;6.466;2024-01-30T09:19:29;10.50;99.90
20376;DHT22;10347;51.828;6.466;2024-01-30T09:21:55;10.50;99.90
20376;DHT22;10347;51.828;6.466;2024-01-30T09:24:21;10.50;99.90
20376;DHT22;10347;51.828;6.466;2024-01-30T09:26:46;10.50;99.90
20376;DHT22;10347;51.828;6.466;2024-01-30T09:29:12;10.60;99.90
20376;DHT22;10347;51.828;6.466;2024-01-30T09:31:37;10.60;99.90
20376;DHT22;10347;51.828;6.466;2024-01-30T09:34:03;10.60;99.90
20376;DHT22;10347;51.828;6.466;2024-01-30T09:36:28;10.60;99.90
20376;DHT22;10347;51.828;6.466;2024-01-30T09:38:54;10.60;99.90
20376;DHT22;10347;51.828;6.466;2024-01-30T09:41:20;10.70;99.90
20376;DHT22;10347;51.828;6.466;2024-01-30T09:43:48;10.70;99.90
20376;DHT22;10347;51.828;6.466;2024-01-30T09:46:17;10.70;99.90
20376;DHT22;10347;51.828;6.466;2024-01-30T09:48:49;10.80;99.90
20376;DHT22;10347;51.828;6.466;2024-01-30T09:51:15;10.80;99.90
20376;DHT22;10347;51.828;6.466;2024-01-30T09:53:42;10.80;99.90
20376;DHT22;10347;51.828;6.466;2024-01-30T09:56:09;10.80;99.90
20376;DHT22;10347;51.828;6.466;2024-01-30T09:58:35;10.90;99.90
20376;DHT22;10347;51.828;6.466;2024-01-30T10:01:00;10.90;99.90
20376;DHT22;10347;51.828;6.466;2024-01-30T10:03:26;10.90;99.90
20376;DHT22;10347;51.828;6.466;2024-01-30T10:05:52;10.90;99.90
20376;DHT22;10347;51.828;6.466;2024-01-30T10:08:18;11.00;99.90
20376;DHT22;10347;51.828;6.466;2024-01-30T10:10:47;11.00;99.90
20376;DHT22;10347;51.828;6.466;2024-01-30T10:13:13;11.00;99.90
20376;DHT22;10347;51.828;6.466;2024-01-30T10:15:38;11.10;99.90
20376;DHT22;10347;51.828;6.466;2024-01-30T10:18:04;11.10;99.90
20376;DHT22;10347;51.828;6.466;2024-01-30T10:20:34;11.10;99.90
20376;DHT22;10347;51.828;6.466;2024-01-30T10:23:00;11.20;99.90
20376;DHT22;10347;51.828;6.466;2024-01-30T10:25:26;11.20;99.90
20376;DHT22;10347;51.828;6.466;2024-01-30T10:27:54;11.20;99.90
20376;DHT22;10347;51.828;6.466;2024-01-30T10:30:23;11.30;99.90
20376;DHT22;10347;51.828;6.466;2024-01-30T10:32:49;11.30;99.90
20376;DHT22;10347;51.828;6.466;2024-01-30T10:35:15;11.30;99.90
20376;DHT22;10347;51.828;6.466;2024-01-30T10:37:43;11.30;99.90
20376;DHT22;10347;51.828;6.466;2024-01-30T10:40:13;11.30;99.90
20376;DHT22;10347;51.828;6.466;2024-01-30T10:42:45;11.40;99.90
20376;DHT22;10347;51.828;6.466;2024-01-30T10:45:12;11.40;99.90
20376;DHT22;10347;51.828;6.466;2024-01-30T10:47:40;11.40;99.90
20376;DHT22;10347;51.828;6.466;2024-01-30T10:50:08;11.50;99.90
20376;DHT22;10347;51.828;6.466;2024-01-30T10:52:34;11.50;99.90
20376;DHT22;10347;51.828;6.466;2024-01-30T10:55:00;11.50;99.90
20376;DHT22;10347;51.828;6.466;2024-01-30T10:57:27;11.50;99.90
20376;DHT22;10347;51.828;6.466;2024-01-30T11:00:00;11.60;99.90
20376;DHT22;10347;51.828;6.466;2024-01-30T11:02:31;11.60;99.90
20376;DHT22;10347;51.828;6.466;2024-01-30T11:04:58;11.60;99.90
20376;DHT22;10347;51.828;6.466;2024-01-30T11:07:25;11.60;99.90
20376;DHT22;10347;51.828;6.466;2024-01-30T11:12:26;11.70;99.90
20376;DHT22;10347;51.828;6.466;2024-01-30T11:15:13;11.70;99.90
20376;DHT22;10347;51.828;6.466;2024-01-30T11:17:42;11.80;99.90
20376;DHT22;10347;51.828;6.466;2024-01-30T11:20:31;11.80;99.90
20376;DHT22;10347;51.828;6.466;2024-01-30T11:22:59;11.80;99.90
20376;DHT22;10347;51.828;6.466;2024-01-30T11:25:25;11.80;99.90
20376;DHT22;10347;51.828;6.466;2024-01-30T11:27:54;11.80;99.90
20376;DHT22;10347;51.828;6.466;2024-01-30T11:30:23;11.90;99.90
20376;DHT22;10347;51.828;6.466;2024-01-30T11:33:03;11.90;99.90
20376;DHT22;10347;51.828;6.466;2024-01-30T11:35:34;11.90;99.90
20376;DHT22;10347;51.828;6.466;2024-01-30T11:38:00;11.90;99.90
20376;DHT22;10347;51.828;6.466;2024-01-30T11:40:30;12.00;99.90
20376;DHT22;10347;51.828;6.466;2024-01-30T11:42:57;12.00;99.90
20376;DHT22;10347;51.828;6.466;2024-01-30T11:45:23;12.00;99.90
20376;DHT22;10347;51.828;6.466;2024-01-30T11:47:49;12.00;99.90
20376;DHT22;10347;51.828;6.466;2024-01-30T11:50:15;12.10;99.90
20376;DHT22;10347;51.828;6.466;2024-01-30T11:52:40;12.10;99.90
20376;DHT22;10347;51.828;6.466;2024-01-30T11:55:07;12.10;99.90
20376;DHT22;10347;51.828;6.466;2024-01-30T11:57:33;12.20;99.90
20376;DHT22;10347;51.828;6.466;2024-01-30T12:00:01;12.20;99.90
20376;DHT22;10347;51.828;6.466;2024-01-30T12:02:26;12.20;99.90
20376;DHT22;10347;51.828;6.466;2024-01-30T12:04:52;12.30;99.90
20376;DHT22;10347;51.828;6.466;2024-01-30T12:07:17;12.30;99.90
20376;DHT22;10347;51.828;6.466;2024-01-30T12:09:52;12.30;99.90
20376;DHT22;10347;51.828;6.466;2024-01-30T12:12:18;12.30;99.90
20376;DHT22;10347;51.828;6.466;2024-01-30T12:14:44;12.40;99.90
20376;DHT22;10347;51.828;6.466;2024-01-30T12:17:09;12.40;99.90
20376;DHT22;10347;51.828;6.466;2024-01-30T12:19:36;12.40;99.90
20376;DHT22;10347;51.828;6.466;2024-01-30T12:22:02;12.50;99.90
20376;DHT22;10347;51.828;6.466;2024-01-30T12:24:28;12.50;99.90
20376;DHT22;10347;51.828;6.466;2024-01-30T12:26:59;12.50;99.90
20376;DHT22;10347;51.828;6.466;2024-01-30T12:29:24;12.50;99.90
20376;DHT22;10347;51.828;6.466;2024-01-30T12:31:53;12.50;99.90
20376;DHT22;10347;51.828;6.466;2024-01-30T12:34:19;12.50;99.90
20376;DHT22;10347;51.828;6.466;2024-01-30T12:36:47;12.50;99.90
20376;DHT22;10347;51.828;6.466;2024-01-30T12:39:14;12.60;99.90
20376;DHT22;10347;51.828;6.466;2024-01-30T12:41:40;12.60;99.90
20376;DHT22;10347;51.828;6.466;2024-01-30T12:44:06;12.60;99.90
20376;DHT22;10347;51.828;6.466;2024-01-30T12:46:34;12.60;99.90
20376;DHT22;10347;51.828;6.466;2024-01-30T12:48:59;12.70;99.90
20376;DHT22;10347;51.828;6.466;2024-01-30T12:51:25;12.70;99.90
20376;DHT22;10347;51.828;6.466;2024-01-30T12:53:51;12.70;99.90
20376;DHT22;10347;51.828;6.466;2024-01-30T12:56:16;12.70;99.90
20376;DHT22;10347;51.828;6.466;2024-01-30T12:58:42;12.70;99.90
20376;DHT22;10347;51.828;6.466;2024-01-30T13:01:08;12.70;99.90
20376;DHT22;10347;51.828;6.466;2024-01-30T13:03:34;12.80;99.90
20376;DHT22;10347;51.828;6.466;2024-01-30T13:06:00;12.80;99.90
20376;DHT22;10347;51.828;6.466;2024-01-30T13:08:25;12.80;99.90
20376;DHT22;10347;51.828;6.466;2024-01-30T13:10:51;12.80;99.90
20376;DHT22;10347;51.828;6.466;2024-01-30T13:13:16;12.80;99.90
20376;DHT22;10347;51.828;6.466;2024-01-30T13:15:42;12.90;99.90
20376;DHT22;10347;51.828;6.466;2024-01-30T13:18:08;12.90;99.90
20376;DHT22;10347;51.828;6.466;2024-01-30T13:20:33;12.90;99.90
20376;DHT22;10347;51.828;6.466;2024-01-30T13:22:59;12.80;99.90
20376;DHT22;10347;51.828;6.466;2024-01-30T13:25:24;12.90;99.90
20376;DHT22;10347;51.828;6.466;2024-01-30T13:27:50;12.90;99.90
20376;DHT22;10347;51.828;6.466;2024-01-30T13:30:15;12.90;99.90
20376;DHT22;10347;51.828;6.466;2024-01-30T13:32:41;12.90;99.90
20376;DHT22;10347;51.828;6.466;2024-01-30T13:35:09;12.90;99.90
20376;DHT22;10347;51.828;6.466;2024-01-30T13:37:35;12.90;99.90
20376;DHT22;10347;51.828;6.466;2024-01-30T13:40:02;12.90;99.90
20376;DHT22;10347;51.828;6.466;2024-01-30T13:42:28;12.90;99.90
20376;DHT22;10347;51.828;6.466;2024-01-30T13:44:53;12.90;99.90
20376;DHT22;10347;51.828;6.466;2024-01-30T13:47:19;12.90;99.90
20376;DHT22;10347;51.828;6.466;2024-01-30T13:49:46;12.90;99.90
20376;DHT22;10347;51.828;6.466;2024-01-30T13:52:13;12.90;99.90
20376;DHT22;10347;51.828;6.466;2024-01-30T13:54:38;13.00;99.90
20376;DHT22;10347;51.828;6.466;2024-01-30T13:57:04;13.00;99.90
20376;DHT22;10347;51.828;6.466;2024-01-30T13:59:30;13.00;99.90
20376;DHT22;10347;51.828;6.466;2024-01-30T14:01:56;13.00;99.90
20376;DHT22;10347;51.828;6.466;2024-01-30T14:04:21;13.00;99.90
20376;DHT22;10347;51.828;6.466;2024-01-30T14:06:47;13.00;99.90
20376;DHT22;10347;51.828;6.466;2024-01-30T14:09:12;12.90;99.90
20376;DHT22;10347;51.828;6.466;2024-01-30T14:11:41;12.90;99.90
20376;DHT22;10347;51.828;6.466;2024-01-30T14:14:07;12.90;99.90
20376;DHT22;10347;51.828;6.466;2024-01-30T14:16:32;13.00;99.90
20376;DHT22;10347;51.828;6.466;2024-01-30T14:18:58;12.90;99.90
20376;DHT22;10347;51.828;6.466;2024-01-30T14:21:23;12.90;99.90
20376;DHT22;10347;51.828;6.466;2024-01-30T14:23:49;12.90;99.90
20376;DHT22;10347;51.828;6.466;2024-01-30T14:26:15;12.90;99.90
20376;DHT22;10347;51.828;6.466;2024-01-30T14:28:40;12.90;99.90
20376;DHT22;10347;51.828;6.466;2024-01-30T14:31:06;12.90;99.90
20376;DHT22;10347;51.828;6.466;2024-01-30T14:33:31;12.90;99.90
20376;DHT22;10347;51.828;6.466;2024-01-30T14:35:58;12.80;99.90
20376;DHT22;10347;51.828;6.466;2024-01-30T14:38:23;12.80;99.90
20376;DHT22;10347;51.828;6.466;2024-01-30T14:40:50;12.70;99.90
20376;DHT22;10347;51.828;6.466;2024-01-30T14:43:16;12.70;99.90
20376;DHT22;10347;51.828;6.466;2024-01-30T14:45:41;12.70;99.90
20376;DHT22;10347;51.828;6.466;2024-01-30T14:48:08;12.60;99.90
20376;DHT22;10347;51.828;6.466;2024-01-30T14:50:34;12.60;99.90
20376;DHT22;10347;51.828;6.466;2024-01-30T14:53:00;12.60;99.90
20376;DHT22;10347;51.828;6.466;2024-01-30T14:55:25;12.60;99.90
20376;DHT22;10347;51.828;6.466;2024-01-30T14:57:51;12.60;99.90
20376;DHT22;10347;51.828;6.466;2024-01-30T15:00:17;12.60;99.90
20376;DHT22;10347;51.828;6.466;2024-01-30T15:02:42;12.60;99.90
20376;DHT22;10347;51.828;6.466;2024-01-30T15:05:08;12.60;99.90
20376;DHT22;10347;51.828;6.466;2024-01-30T15:07:36;12.60;99.90
20376;DHT22;10347;51.828;6.466;2024-01-30T15:10:02;12.60;99.90
20376;DHT22;10347;51.828;6.466;2024-01-30T15:12:28;12.60;99.90
20376;DHT22;10347;51.828;6.466;2024-01-30T15:14:54;12.60;99.90
20376;DHT22;10347;51.828;6.466;2024-01-30T15:17:20;12.60;99.90
20376;DHT22;10347;51.828;6.466;2024-01-30T15:19:47;12.60;99.90
20376;DHT22;10347;51.828;6.466;2024-01-30T15:22:13;12.60;99.90
20376;DHT22;10347;51.828;6.466;2024-01-30T15:24:38;12.50;99.90
20376;DHT22;10347;51.828;6.466;2024-01-30T15:27:04;12.50;99.90